createdAt,value
2019-03-21T00:00:05.681Z,10.48
2019-03-21T00:01:43.708Z,10.51
2019-03-21T00:03:18.863Z,10.50
2019-03-21T00:04:56.494Z,10.49
2019-03-21T00:06:31.741Z,10.39
2019-03-21T00:08:08.725Z,10.44
2019-03-21T00:10:37.056Z,10.43
2019-03-21T00:12:12.262Z,10.44
2019-03-21T00:13:47.449Z,10.43
2019-03-21T00:15:26.782Z,10.38
2019-03-21T00:17:02.302Z,10.36
2019-03-21T00:18:37.565Z,10.38
2019-03-21T00:20:16.836Z,10.43
2019-03-21T00:21:52.022Z,10.42
2019-03-21T00:23:27.241Z,10.43
2019-03-21T00:25:02.453Z,10.37
2019-03-21T00:26:38.615Z,10.31
2019-03-21T00:28:13.806Z,10.34
2019-03-21T00:29:49.016Z,10.26
2019-03-21T00:31:24.199Z,10.35
2019-03-21T00:32:59.387Z,10.39
2019-03-21T00:34:34.629Z,10.37
2019-03-21T00:36:09.802Z,10.30
2019-03-21T00:37:45.025Z,10.33
2019-03-21T00:39:20.209Z,10.33
2019-03-21T00:40:55.430Z,10.31
2019-03-21T00:42:30.626Z,10.24
2019-03-21T00:44:06.009Z,10.28
2019-03-21T00:45:41.203Z,10.32
2019-03-21T00:47:16.384Z,10.30
2019-03-21T00:48:51.575Z,10.26
2019-03-21T00:50:26.952Z,10.26
2019-03-21T00:52:03.262Z,10.22
2019-03-21T00:53:38.459Z,10.18
2019-03-21T00:55:13.774Z,10.36
2019-03-21T00:56:48.972Z,10.22
2019-03-21T00:58:24.173Z,10.15
2019-03-21T00:59:59.365Z,10.29
2019-03-21T01:01:34.603Z,10.24
2019-03-21T01:03:10.922Z,10.17
2019-03-21T01:04:46.128Z,10.03
2019-03-21T01:06:21.381Z,10.08
2019-03-21T01:07:56.566Z,10.09
2019-03-21T01:09:31.773Z,10.07
2019-03-21T01:11:07.072Z,10.19
2019-03-21T01:12:44.711Z,10.18
2019-03-21T01:14:29.428Z,10.12
2019-03-21T01:15:56.879Z,10.19
2019-03-21T01:17:33.018Z,10.21
2019-03-21T01:19:08.282Z,10.24
2019-03-21T01:20:43.491Z,10.12
2019-03-21T01:22:19.004Z,10.12
2019-03-21T01:23:54.201Z,10.14
2019-03-21T01:25:32.905Z,10.23
2019-03-21T01:27:08.212Z,10.10
2019-03-21T01:28:43.387Z,10.10
2019-03-21T01:30:19.746Z,10.11
2019-03-21T01:31:54.963Z,10.13
2019-03-21T01:33:30.149Z,10.12
2019-03-21T01:35:05.625Z,10.11
2019-03-21T01:36:40.831Z,10.09
2019-03-21T01:38:17.326Z,10.10
2019-03-21T01:39:52.508Z,10.27
2019-03-21T01:41:27.755Z,10.14
2019-03-21T01:43:02.941Z,10.09
2019-03-21T01:44:41.260Z,10.09
2019-03-21T01:46:15.676Z,10.07
2019-03-21T01:47:51.623Z,10.00
2019-03-21T01:49:26.805Z,9.98
2019-03-21T01:51:02.050Z,10.11
2019-03-21T01:52:37.241Z,10.11
2019-03-21T01:54:12.434Z,10.10
2019-03-21T01:55:47.630Z,10.13
2019-03-21T01:57:22.897Z,10.08
2019-03-21T01:58:58.431Z,10.15
2019-03-21T02:00:35.645Z,10.14
2019-03-21T02:02:11.128Z,10.18
2019-03-21T02:03:46.345Z,10.13
2019-03-21T02:05:21.649Z,9.98
2019-03-21T02:06:56.817Z,10.02
2019-03-21T02:08:32.000Z,10.10
2019-03-21T02:10:09.895Z,10.16
2019-03-21T02:11:45.128Z,10.23
2019-03-21T02:13:20.304Z,10.14
2019-03-21T02:14:55.486Z,9.95
2019-03-21T02:16:30.669Z,10.06
2019-03-21T02:18:06.273Z,10.01
2019-03-21T02:19:41.436Z,10.21
2019-03-21T02:21:16.651Z,10.06
2019-03-21T02:22:51.827Z,10.00
2019-03-21T02:24:27.005Z,9.99
2019-03-21T02:26:02.212Z,10.05
2019-03-21T02:27:37.430Z,9.99
2019-03-21T02:29:12.627Z,10.02
2019-03-21T02:30:47.961Z,10.06
2019-03-21T02:32:23.172Z,10.09
2019-03-21T02:33:58.520Z,10.25
2019-03-21T02:35:33.725Z,10.16
2019-03-21T02:37:08.943Z,10.04
2019-03-21T02:38:44.127Z,10.03
2019-03-21T02:40:21.340Z,10.07
2019-03-21T02:41:56.572Z,10.10
2019-03-21T02:43:31.781Z,9.98
2019-03-21T02:45:09.458Z,9.99
2019-03-21T02:46:44.907Z,9.99
2019-03-21T02:48:20.265Z,9.94
2019-03-21T02:49:55.465Z,9.91
2019-03-21T02:51:30.719Z,9.92
2019-03-21T02:53:05.984Z,9.86
2019-03-21T02:54:41.210Z,9.89
2019-03-21T02:56:17.175Z,9.95
2019-03-21T02:57:52.394Z,9.87
2019-03-21T02:59:27.566Z,9.78
2019-03-21T03:01:02.858Z,9.86
2019-03-21T03:02:38.036Z,9.86
2019-03-21T03:04:13.229Z,9.85
2019-03-21T03:05:48.427Z,9.87
2019-03-21T03:07:23.631Z,9.81
2019-03-21T03:08:58.820Z,9.84
2019-03-21T03:10:36.712Z,9.76
2019-03-21T03:12:11.923Z,9.83
2019-03-21T03:13:48.216Z,9.85
2019-03-21T03:15:24.367Z,9.75
2019-03-21T03:16:59.640Z,9.76
2019-03-21T03:18:34.911Z,9.62
2019-03-21T03:20:12.169Z,9.79
2019-03-21T03:21:47.347Z,9.88
2019-03-21T03:23:22.613Z,9.86
2019-03-21T03:24:57.819Z,9.74
2019-03-21T03:26:33.014Z,9.82
2019-03-21T03:28:14.339Z,9.77
2019-03-21T03:29:49.555Z,9.74
2019-03-21T03:31:24.788Z,9.58
2019-03-21T03:33:00.017Z,9.65
2019-03-21T03:34:35.219Z,9.75
2019-03-21T03:36:10.578Z,9.71
2019-03-21T03:37:45.981Z,9.71
2019-03-21T03:39:21.178Z,9.67
2019-03-21T03:40:58.442Z,9.89
2019-03-21T03:42:33.632Z,9.89
2019-03-21T03:44:08.806Z,9.80
2019-03-21T03:45:44.097Z,9.81
2019-03-21T03:47:19.287Z,9.96
2019-03-21T03:48:54.464Z,9.89
2019-03-21T03:50:30.717Z,9.91
2019-03-21T03:52:05.930Z,9.70
2019-03-21T03:53:42.596Z,9.73
2019-03-21T03:55:18.706Z,9.91
2019-03-21T03:56:53.846Z,9.83
2019-03-21T03:58:29.179Z,9.82
2019-03-21T04:00:05.214Z,9.69
2019-03-21T04:01:40.435Z,9.69
2019-03-21T04:03:15.646Z,9.81
2019-03-21T04:04:50.861Z,9.79
2019-03-21T04:06:26.112Z,9.86
2019-03-21T04:08:01.298Z,9.79
2019-03-21T04:09:36.571Z,9.76
2019-03-21T04:11:11.916Z,9.86
2019-03-21T04:12:49.637Z,9.77
2019-03-21T04:14:24.846Z,9.76
2019-03-21T04:16:00.070Z,9.77
2019-03-21T04:17:35.240Z,9.67
2019-03-21T04:19:10.411Z,9.72
2019-03-21T04:20:46.485Z,9.74
2019-03-21T04:22:21.698Z,9.74
2019-03-21T04:23:59.565Z,9.82
2019-03-21T04:25:48.961Z,9.89
2019-03-21T04:27:24.240Z,9.81
2019-03-21T04:28:59.435Z,9.54
2019-03-21T04:30:34.678Z,9.55
2019-03-21T04:32:10.831Z,9.67
2019-03-21T04:33:46.181Z,9.93
2019-03-21T04:35:21.361Z,9.77
2019-03-21T04:36:56.548Z,9.75
2019-03-21T04:38:31.745Z,9.79
2019-03-21T04:40:07.979Z,9.73
2019-03-21T04:41:43.965Z,9.74
2019-03-21T04:43:19.152Z,9.69
2019-03-21T04:44:55.436Z,9.64
2019-03-21T04:46:30.629Z,9.76
2019-03-21T04:48:05.927Z,9.82
2019-03-21T04:49:41.182Z,9.68
2019-03-21T04:51:16.496Z,9.72
2019-03-21T04:52:51.659Z,9.67
2019-03-21T04:54:27.816Z,9.68
2019-03-21T04:56:02.988Z,9.71
2019-03-21T04:57:38.178Z,9.63
2019-03-21T04:59:13.365Z,9.73
2019-03-21T05:00:48.684Z,9.77
2019-03-21T05:02:23.933Z,9.74
2019-03-21T05:03:59.125Z,9.66
2019-03-21T05:05:34.373Z,9.86
2019-03-21T05:07:09.586Z,9.82
2019-03-21T05:08:44.811Z,9.85
2019-03-21T05:10:19.988Z,9.82
2019-03-21T05:11:55.174Z,9.79
2019-03-21T05:13:30.384Z,9.76
2019-03-21T05:15:07.319Z,9.77
2019-03-21T05:16:42.508Z,9.77
2019-03-21T05:18:21.473Z,9.77
2019-03-21T05:19:56.683Z,9.77
2019-03-21T05:21:32.840Z,9.78
2019-03-21T05:23:08.020Z,9.73
2019-03-21T05:24:43.202Z,9.74
2019-03-21T05:26:18.454Z,9.73
2019-03-21T05:27:53.630Z,9.70
2019-03-21T05:29:30.250Z,9.82
2019-03-21T05:31:08.839Z,9.74
2019-03-21T05:32:44.027Z,9.74
2019-03-21T05:34:19.277Z,9.67
2019-03-21T05:35:54.488Z,9.85
2019-03-21T05:37:29.699Z,9.94
2019-03-21T05:39:07.658Z,9.91
2019-03-21T05:40:42.854Z,9.93
2019-03-21T05:42:20.699Z,9.87
2019-03-21T05:44:00.764Z,10.01
2019-03-21T05:45:35.902Z,10.04
2019-03-21T05:47:11.108Z,9.98
2019-03-21T05:48:46.282Z,9.98
2019-03-21T05:50:21.508Z,10.07
2019-03-21T05:51:56.730Z,10.02
2019-03-21T05:53:31.938Z,9.99
2019-03-21T05:55:08.172Z,10.03
2019-03-21T05:56:43.374Z,10.07
2019-03-21T05:58:18.542Z,10.09
2019-03-21T05:59:53.809Z,9.96
2019-03-21T06:01:28.991Z,9.97
2019-03-21T06:03:04.670Z,10.09
2019-03-21T06:04:39.888Z,10.09
2019-03-21T06:06:18.380Z,10.09
2019-03-21T06:07:57.720Z,10.06
2019-03-21T06:09:32.900Z,10.12
2019-03-21T06:11:08.173Z,10.17
2019-03-21T06:12:46.856Z,10.26
2019-03-21T06:14:22.044Z,10.18
2019-03-21T06:16:06.677Z,10.26
2019-03-21T06:17:41.992Z,10.36
2019-03-21T06:19:57.123Z,10.33
2019-03-21T06:21:36.775Z,10.22
2019-03-21T06:23:52.372Z,10.45
2019-03-21T06:25:54.755Z,10.58
2019-03-21T06:27:30.259Z,10.55
2019-03-21T06:29:05.483Z,10.60
2019-03-21T06:30:40.714Z,10.65
2019-03-21T06:32:15.925Z,10.62
2019-03-21T06:33:51.103Z,10.73
2019-03-21T06:35:26.337Z,10.47
2019-03-21T06:37:01.844Z,10.56
2019-03-21T06:38:37.057Z,10.60
2019-03-21T06:40:12.262Z,10.78
2019-03-21T06:41:47.443Z,10.74
2019-03-21T06:43:22.626Z,10.67
2019-03-21T06:44:58.133Z,10.82
2019-03-21T06:46:33.311Z,10.85
2019-03-21T06:48:08.497Z,10.81
2019-03-21T06:49:46.309Z,11.00
2019-03-21T06:51:20.597Z,10.99
2019-03-21T06:52:55.847Z,11.11
2019-03-21T06:54:31.033Z,10.89
2019-03-21T06:56:06.316Z,11.07
2019-03-21T06:57:41.564Z,11.10
2019-03-21T06:59:16.777Z,11.16
2019-03-21T07:00:51.968Z,10.94
2019-03-21T07:02:27.147Z,11.05
2019-03-21T07:04:06.915Z,11.11
2019-03-21T07:05:39.249Z,11.20
2019-03-21T07:07:14.518Z,11.17
2019-03-21T07:08:49.696Z,11.04
2019-03-21T07:10:24.877Z,11.38
2019-03-21T07:12:00.109Z,11.15
2019-03-21T07:13:35.327Z,11.14
2019-03-21T07:15:11.075Z,11.13
2019-03-21T07:16:46.291Z,11.05
2019-03-21T07:18:21.532Z,11.14
2019-03-21T07:19:56.754Z,10.98
2019-03-21T07:21:31.951Z,11.08
2019-03-21T07:23:07.156Z,11.18
2019-03-21T07:24:42.333Z,11.13
2019-03-21T07:26:17.534Z,11.32
2019-03-21T07:27:52.766Z,11.34
2019-03-21T07:29:28.045Z,11.42
2019-03-21T07:31:04.396Z,11.21
2019-03-21T07:32:39.591Z,11.43
2019-03-21T07:34:14.809Z,11.46
2019-03-21T07:35:49.992Z,11.41
2019-03-21T07:37:25.181Z,11.50
2019-03-21T07:39:00.364Z,11.48
2019-03-21T07:40:35.558Z,11.29
2019-03-21T07:42:10.875Z,11.26
2019-03-21T07:43:46.043Z,11.39
2019-03-21T07:45:21.337Z,11.30
2019-03-21T07:46:56.606Z,11.33
2019-03-21T07:48:31.784Z,11.26
2019-03-21T07:50:07.998Z,11.47
2019-03-21T07:51:45.160Z,11.73
2019-03-21T07:53:22.134Z,11.52
2019-03-21T07:54:57.509Z,11.70
2019-03-21T07:56:32.683Z,11.27
2019-03-21T07:58:07.869Z,11.34
2019-03-21T07:59:43.093Z,11.25
2019-03-21T08:01:18.266Z,11.65
2019-03-21T08:02:53.542Z,11.37
2019-03-21T08:04:28.727Z,11.36
2019-03-21T08:06:03.991Z,11.63
2019-03-21T08:07:39.184Z,11.77
2019-03-21T08:09:14.385Z,11.68
2019-03-21T08:10:49.574Z,11.68
2019-03-21T08:12:24.812Z,11.65
2019-03-21T08:14:00.000Z,11.51
2019-03-21T08:15:37.920Z,11.63
2019-03-21T08:17:13.000Z,11.74
2019-03-21T08:18:48.214Z,11.38
2019-03-21T08:20:23.499Z,11.58
2019-03-21T08:21:58.700Z,11.40
2019-03-21T08:23:33.911Z,11.64
2019-03-21T08:25:09.446Z,11.73
2019-03-21T08:26:44.633Z,11.73
2019-03-21T08:28:19.868Z,11.62
2019-03-21T08:29:55.022Z,11.75
2019-03-21T08:31:30.235Z,11.81
2019-03-21T08:33:06.600Z,12.11
2019-03-21T08:34:41.793Z,12.11
2019-03-21T08:36:17.446Z,11.88
2019-03-21T08:37:52.698Z,11.91
2019-03-21T08:39:27.893Z,11.94
2019-03-21T08:41:03.141Z,11.96
2019-03-21T08:42:38.338Z,12.12
2019-03-21T08:44:13.533Z,12.26
2019-03-21T08:45:48.770Z,12.20
2019-03-21T08:47:23.944Z,12.40
2019-03-21T08:48:59.150Z,12.43
2019-03-21T08:50:34.476Z,12.34
2019-03-21T08:52:09.709Z,12.37
2019-03-21T08:53:44.915Z,12.64
2019-03-21T08:55:20.179Z,12.64
2019-03-21T08:56:55.450Z,12.51
2019-03-21T08:58:30.647Z,12.44
2019-03-21T09:00:07.201Z,12.35
2019-03-21T09:01:42.406Z,12.60
2019-03-21T09:03:17.592Z,12.66
2019-03-21T09:04:52.982Z,12.67
2019-03-21T09:06:28.279Z,12.67
2019-03-21T09:08:03.526Z,12.65
2019-03-21T09:09:38.730Z,12.62
2019-03-21T09:11:13.934Z,13.02
2019-03-21T09:12:49.134Z,13.02
2019-03-21T09:14:24.505Z,12.73
2019-03-21T09:15:59.747Z,12.73
2019-03-21T09:17:34.955Z,12.96
2019-03-21T09:19:10.318Z,13.15
2019-03-21T09:20:45.477Z,13.30
2019-03-21T09:22:20.721Z,13.13
2019-03-21T09:23:55.934Z,13.13
2019-03-21T09:25:31.157Z,13.21
2019-03-21T09:27:06.347Z,13.22
2019-03-21T09:28:41.535Z,12.97
2019-03-21T09:30:16.875Z,13.15
2019-03-21T09:31:52.125Z,13.79
2019-03-21T09:33:27.316Z,14.07
2019-03-21T09:35:02.549Z,13.98
2019-03-21T09:36:37.827Z,13.96
2019-03-21T09:38:13.056Z,14.23
2019-03-21T09:39:48.263Z,14.23
2019-03-21T09:41:23.470Z,14.70
2019-03-21T09:42:58.962Z,14.70
2019-03-21T09:44:34.162Z,14.65
2019-03-21T09:46:09.375Z,14.55
2019-03-21T09:47:45.557Z,14.44
2019-03-21T09:49:20.795Z,14.70
2019-03-21T09:50:56.058Z,14.70
2019-03-21T09:52:31.339Z,14.62
2019-03-21T09:54:09.853Z,14.77
2019-03-21T09:55:43.552Z,14.34
2019-03-21T09:57:19.811Z,14.34
2019-03-21T09:58:55.017Z,14.77
2019-03-21T10:00:32.288Z,14.50
2019-03-21T10:02:07.497Z,14.77
2019-03-21T10:03:42.683Z,14.89
2019-03-21T10:05:17.909Z,15.27
2019-03-21T10:06:53.129Z,14.87
2019-03-21T10:08:28.381Z,14.69
2019-03-21T10:10:05.308Z,14.93
2019-03-21T10:11:40.602Z,15.09
2019-03-21T10:13:15.788Z,15.35
2019-03-21T10:14:50.993Z,15.70
2019-03-21T10:16:26.199Z,15.31
2019-03-21T10:18:01.463Z,14.84
2019-03-21T10:19:36.732Z,15.62
2019-03-21T10:21:11.997Z,16.58
2019-03-21T10:22:47.200Z,16.30
2019-03-21T10:24:23.365Z,17.04
2019-03-21T10:25:58.809Z,17.69
2019-03-21T10:27:34.005Z,16.70
2019-03-21T10:29:09.302Z,16.30
2019-03-21T10:30:44.592Z,16.07
2019-03-21T10:32:20.923Z,16.43
2019-03-21T10:33:56.122Z,16.16
2019-03-21T10:35:32.688Z,16.81
2019-03-21T10:37:08.104Z,16.92
2019-03-21T10:38:43.347Z,17.45
2019-03-21T10:40:18.551Z,17.42
2019-03-21T10:41:53.760Z,17.89
2019-03-21T10:43:28.942Z,17.59
2019-03-21T10:45:04.390Z,17.64
2019-03-21T10:46:39.671Z,17.72
2019-03-21T10:48:14.893Z,17.53
2019-03-21T10:49:51.137Z,17.30
2019-03-21T10:51:26.320Z,17.98
2019-03-21T10:53:01.662Z,17.96
2019-03-21T10:54:36.859Z,16.89
2019-03-21T10:56:12.051Z,17.05
2019-03-21T10:57:47.277Z,16.97
2019-03-21T10:59:22.522Z,17.12
2019-03-21T11:00:57.639Z,17.77
2019-03-21T11:02:32.830Z,17.50
2019-03-21T11:04:08.038Z,17.42
2019-03-21T11:05:43.236Z,17.01
2019-03-21T11:07:16.640Z,16.84
2019-03-21T11:08:51.826Z,17.02
2019-03-21T11:10:27.367Z,17.38
2019-03-21T11:12:02.552Z,17.36
2019-03-21T11:13:37.778Z,18.35
2019-03-21T11:15:13.114Z,17.33
2019-03-21T11:16:48.389Z,17.05
2019-03-21T11:18:23.585Z,17.46
2019-03-21T11:19:58.813Z,17.16
2019-03-21T11:21:34.024Z,17.65
2019-03-21T11:23:09.783Z,17.56
2019-03-21T11:24:45.025Z,17.22
2019-03-21T11:26:20.214Z,17.31
2019-03-21T11:27:55.484Z,17.85
2019-03-21T11:29:30.694Z,17.77
2019-03-21T11:31:06.040Z,16.90
2019-03-21T11:32:41.242Z,16.88
2019-03-21T11:34:16.444Z,16.06
2019-03-21T11:35:52.693Z,16.70
2019-03-21T11:37:27.887Z,16.43
2019-03-21T11:39:04.881Z,16.11
2019-03-21T11:40:40.335Z,17.02
2019-03-21T11:42:15.813Z,17.02
2019-03-21T11:43:51.034Z,15.77
2019-03-21T11:45:26.256Z,15.81
2019-03-21T11:47:01.447Z,16.20
2019-03-21T11:48:36.636Z,16.20
2019-03-21T11:50:12.005Z,16.19
2019-03-21T11:51:47.208Z,15.93
2019-03-21T11:53:22.390Z,16.20
2019-03-21T11:54:57.608Z,16.00
2019-03-21T11:56:32.846Z,16.51
2019-03-21T11:58:08.027Z,16.45
2019-03-21T11:59:51.490Z,16.35
2019-03-21T12:01:20.146Z,16.40
2019-03-21T12:02:55.351Z,16.05
2019-03-21T12:04:30.538Z,16.05
2019-03-21T12:06:05.813Z,15.85
2019-03-21T12:07:41.010Z,15.67
2019-03-21T12:09:17.248Z,15.94
2019-03-21T12:10:52.432Z,16.29
2019-03-21T12:12:27.668Z,16.00
2019-03-21T12:14:02.875Z,15.67
2019-03-21T12:15:38.089Z,15.80
2019-03-21T12:17:15.444Z,15.77
2019-03-21T12:18:52.252Z,15.64
2019-03-21T12:20:31.775Z,15.59
2019-03-21T12:22:06.990Z,15.37
2019-03-21T12:23:42.205Z,15.61
2019-03-21T12:25:17.924Z,15.91
2019-03-21T12:26:53.180Z,15.87
2019-03-21T12:28:28.420Z,15.87
2019-03-21T12:30:03.847Z,15.74
2019-03-21T12:31:39.339Z,15.80
2019-03-21T12:33:14.654Z,15.91
2019-03-21T12:34:49.856Z,15.93
2019-03-21T12:36:25.060Z,16.33
2019-03-21T12:38:01.452Z,15.88
2019-03-21T12:39:36.665Z,15.77
2019-03-21T12:41:11.864Z,15.87
2019-03-21T12:42:47.063Z,16.02
2019-03-21T12:44:22.249Z,16.02
2019-03-21T12:45:57.461Z,15.83
2019-03-21T12:47:32.708Z,16.03
2019-03-21T12:49:07.926Z,15.96
2019-03-21T12:50:43.203Z,15.85
2019-03-21T12:52:18.386Z,15.81
2019-03-21T12:53:53.596Z,15.99
2019-03-21T12:55:29.760Z,15.90
2019-03-21T12:57:05.150Z,15.91
2019-03-21T12:58:40.341Z,16.07
2019-03-21T13:00:15.808Z,16.07
2019-03-21T13:01:51.011Z,16.04
2019-03-21T13:03:26.191Z,15.89
2019-03-21T13:05:01.429Z,15.96
2019-03-21T13:06:36.641Z,15.57
2019-03-21T13:08:11.899Z,15.38
2019-03-21T13:09:47.109Z,15.60
2019-03-21T13:11:22.393Z,15.65
2019-03-21T13:12:57.714Z,15.65
2019-03-21T13:14:32.907Z,15.66
2019-03-21T13:16:08.114Z,15.85
2019-03-21T13:17:43.428Z,15.74
2019-03-21T13:19:18.641Z,15.98
2019-03-21T13:20:53.841Z,15.90
2019-03-21T13:22:29.031Z,15.81
2019-03-21T13:24:05.494Z,15.79
2019-03-21T13:25:40.713Z,15.80
2019-03-21T13:27:17.547Z,15.99
2019-03-21T13:28:52.736Z,16.13
2019-03-21T13:30:29.123Z,16.15
2019-03-21T13:32:04.394Z,15.80
2019-03-21T13:33:39.581Z,15.73
2019-03-21T13:35:15.147Z,15.73
2019-03-21T13:36:50.341Z,15.98
2019-03-21T13:38:25.540Z,15.91
2019-03-21T13:40:00.753Z,15.84
2019-03-21T13:41:36.183Z,15.64
2019-03-21T13:43:11.443Z,15.89
2019-03-21T13:44:47.671Z,15.97
2019-03-21T13:46:22.859Z,15.88
2019-03-21T13:47:58.051Z,15.86
2019-03-21T13:49:33.290Z,15.93
2019-03-21T13:51:08.515Z,15.93
2019-03-21T13:52:43.715Z,15.88
2019-03-21T13:54:18.929Z,15.62
2019-03-21T13:55:54.113Z,15.84
2019-03-21T13:57:29.326Z,15.84
2019-03-21T13:59:04.622Z,15.76
2019-03-21T14:00:41.104Z,15.91
2019-03-21T14:02:16.430Z,16.10
2019-03-21T14:03:51.642Z,15.99
2019-03-21T14:05:27.019Z,15.83
2019-03-21T14:07:02.196Z,15.87
2019-03-21T14:08:38.475Z,15.83
2019-03-21T14:10:13.809Z,15.87
2019-03-21T14:11:49.020Z,15.70
2019-03-21T14:13:24.282Z,15.62
2019-03-21T14:14:59.518Z,15.62
2019-03-21T14:16:34.698Z,15.59
2019-03-21T14:18:10.092Z,15.71
2019-03-21T14:19:45.314Z,15.62
2019-03-21T14:21:20.563Z,15.58
2019-03-21T14:22:55.823Z,15.44
2019-03-21T14:24:31.034Z,15.48
2019-03-21T14:26:06.386Z,15.56
2019-03-21T14:27:41.599Z,15.41
2019-03-21T14:29:16.855Z,15.41
2019-03-21T14:30:52.061Z,15.48
2019-03-21T14:32:27.266Z,15.55
2019-03-21T14:34:02.480Z,15.44
2019-03-21T14:35:37.690Z,15.44
2019-03-21T14:37:12.915Z,15.41
2019-03-21T14:38:48.118Z,15.32
2019-03-21T14:40:23.313Z,15.34
2019-03-21T14:41:58.605Z,15.34
2019-03-21T14:43:33.801Z,15.34
2019-03-21T14:45:09.542Z,15.34
2019-03-21T14:46:45.717Z,15.38
2019-03-21T14:48:20.955Z,15.50
2019-03-21T14:49:56.251Z,15.35
2019-03-21T14:51:31.439Z,15.35
2019-03-21T14:53:06.701Z,15.34
2019-03-21T14:54:41.905Z,15.34
2019-03-21T14:56:17.107Z,15.37
2019-03-21T14:57:52.403Z,15.39
2019-03-21T14:59:27.680Z,15.39
2019-03-21T15:01:02.878Z,15.29
2019-03-21T15:02:38.073Z,15.27
2019-03-21T15:04:13.284Z,15.27
2019-03-21T15:05:48.454Z,15.27
2019-03-21T15:07:23.663Z,15.24
2019-03-21T15:08:58.879Z,15.09
2019-03-21T15:10:34.074Z,15.13
2019-03-21T15:12:09.286Z,15.19
2019-03-21T15:13:44.485Z,15.18
2019-03-21T15:15:19.687Z,15.16
2019-03-21T15:16:54.879Z,15.16
2019-03-21T15:18:30.075Z,15.11
2019-03-21T15:20:06.786Z,15.02
2019-03-21T15:21:42.022Z,15.02
2019-03-21T15:23:17.233Z,15.03
2019-03-21T15:24:52.460Z,14.96
2019-03-21T15:26:27.697Z,14.96
2019-03-21T15:28:03.598Z,15.06
2019-03-21T15:29:38.795Z,15.04
2019-03-21T15:31:13.987Z,14.97
2019-03-21T15:32:49.572Z,14.97
2019-03-21T15:34:25.732Z,14.95
2019-03-21T15:36:00.932Z,14.98
2019-03-21T15:37:36.144Z,15.01
2019-03-21T15:39:11.371Z,14.85
2019-03-21T15:40:46.579Z,14.85
2019-03-21T15:42:22.765Z,14.96
2019-03-21T15:43:57.962Z,15.03
2019-03-21T15:45:33.219Z,15.03
2019-03-21T15:47:08.397Z,14.96
2019-03-21T15:48:43.620Z,15.01
2019-03-21T15:50:37.755Z,15.01
2019-03-21T15:52:12.219Z,14.82
2019-03-21T15:53:54.799Z,14.75
2019-03-21T15:55:24.448Z,14.75
2019-03-21T15:57:00.785Z,14.69
2019-03-21T15:58:36.007Z,14.66
2019-03-21T16:00:14.609Z,14.66
2019-03-21T16:01:50.122Z,14.62
2019-03-21T16:03:25.302Z,14.54
2019-03-21T16:05:00.578Z,14.54
2019-03-21T16:06:36.831Z,14.53
2019-03-21T16:08:12.242Z,14.53
2019-03-21T16:09:47.445Z,14.52
2019-03-21T16:11:22.649Z,14.51
2019-03-21T16:12:58.185Z,14.55
2019-03-21T16:14:33.543Z,14.49
2019-03-21T16:16:08.737Z,14.49
2019-03-21T16:17:43.947Z,14.52
2019-03-21T16:19:19.217Z,14.52
2019-03-21T16:20:54.414Z,14.39
2019-03-21T16:22:30.583Z,14.42
2019-03-21T16:24:06.010Z,14.37
2019-03-21T16:25:41.150Z,14.35
2019-03-21T16:27:16.371Z,14.38
2019-03-21T16:28:51.641Z,14.31
2019-03-21T16:30:27.026Z,14.31
2019-03-21T16:32:02.587Z,14.32
2019-03-21T16:33:38.826Z,14.32
2019-03-21T16:35:14.230Z,14.34
2019-03-21T16:36:49.440Z,14.27
2019-03-21T16:38:24.624Z,14.27
2019-03-21T16:39:59.866Z,14.13
2019-03-21T16:41:35.071Z,14.12
2019-03-21T16:43:10.324Z,14.12
2019-03-21T16:44:45.534Z,14.00
2019-03-21T16:46:20.731Z,13.98
2019-03-21T16:47:55.924Z,13.89
2019-03-21T16:49:31.146Z,13.73
2019-03-21T16:51:06.333Z,13.73
2019-03-21T16:52:41.604Z,13.80
2019-03-21T16:54:17.677Z,13.82
2019-03-21T16:55:53.003Z,13.83
2019-03-21T16:57:28.321Z,13.83
2019-03-21T16:59:03.526Z,13.64
2019-03-21T17:00:38.715Z,13.58
2019-03-21T17:02:13.928Z,13.58
2019-03-21T17:03:49.112Z,13.57
2019-03-21T17:05:24.409Z,13.60
2019-03-21T17:06:59.608Z,13.55
2019-03-21T17:08:34.828Z,13.81
2019-03-21T17:10:11.233Z,13.81
2019-03-21T17:11:46.424Z,13.56
2019-03-21T17:13:23.788Z,13.44
2019-03-21T17:14:58.651Z,13.39
2019-03-21T17:16:33.861Z,13.39
2019-03-21T17:18:09.171Z,13.30
2019-03-21T17:19:44.385Z,13.21
2019-03-21T17:21:19.518Z,13.11
2019-03-21T17:22:54.726Z,13.11
2019-03-21T17:24:30.018Z,13.01
2019-03-21T17:26:05.175Z,13.02
2019-03-21T17:27:41.436Z,13.01
2019-03-21T17:29:16.716Z,13.00
2019-03-21T17:30:51.865Z,12.92
2019-03-21T17:32:27.132Z,12.92
2019-03-21T17:34:04.118Z,12.83
2019-03-21T17:35:39.203Z,12.74
2019-03-21T17:37:14.395Z,12.74
2019-03-21T17:38:49.579Z,12.81
2019-03-21T17:40:24.801Z,12.77
2019-03-21T17:42:00.111Z,12.51
2019-03-21T17:43:35.362Z,12.51
2019-03-21T17:45:12.415Z,12.56
2019-03-21T17:46:47.638Z,12.49
2019-03-21T17:48:22.862Z,12.57
2019-03-21T17:49:58.082Z,12.37
2019-03-21T17:51:33.290Z,12.37
2019-03-21T17:53:08.476Z,12.24
2019-03-21T17:54:43.687Z,12.35
2019-03-21T17:56:18.941Z,12.27
2019-03-21T17:57:54.152Z,12.29
2019-03-21T17:59:29.372Z,12.13
2019-03-21T18:01:04.800Z,12.13
2019-03-21T18:02:41.233Z,12.11
2019-03-21T18:04:17.561Z,12.18
2019-03-21T18:05:52.820Z,12.17
2019-03-21T18:07:28.025Z,12.23
2019-03-21T18:09:04.310Z,12.12
2019-03-21T18:10:39.557Z,12.10
2019-03-21T18:12:15.086Z,11.94
2019-03-21T18:13:50.289Z,11.94
2019-03-21T18:15:25.573Z,11.92
2019-03-21T18:17:00.796Z,12.09
2019-03-21T18:18:36.000Z,12.03
2019-03-21T18:20:11.275Z,11.97
2019-03-21T18:21:46.495Z,11.75
2019-03-21T18:23:21.696Z,11.75
2019-03-21T18:24:56.909Z,11.72
2019-03-21T18:26:33.120Z,11.74
2019-03-21T18:28:08.926Z,11.76
2019-03-21T18:29:44.281Z,11.78
2019-03-21T18:31:19.487Z,11.82
2019-03-21T18:32:54.817Z,11.83
2019-03-21T18:34:30.005Z,11.79
2019-03-21T18:36:05.448Z,11.73
2019-03-21T18:37:40.633Z,11.63
2019-03-21T18:39:15.835Z,11.59
2019-03-21T18:40:51.021Z,11.56
2019-03-21T18:42:26.320Z,11.63
2019-03-21T18:44:01.551Z,11.58
2019-03-21T18:45:36.757Z,11.58
2019-03-21T18:47:11.949Z,11.41
2019-03-21T18:48:48.218Z,11.55
2019-03-21T18:50:23.753Z,11.45
2019-03-21T18:51:58.969Z,11.53
2019-03-21T18:53:34.218Z,11.50
2019-03-21T18:55:09.971Z,11.56
2019-03-21T18:56:45.160Z,11.53
2019-03-21T18:58:20.337Z,11.36
2019-03-21T18:59:55.541Z,11.26
2019-03-21T19:01:30.846Z,11.15
2019-03-21T19:03:07.113Z,11.13
2019-03-21T19:04:42.535Z,11.09
2019-03-21T19:06:17.724Z,11.10
2019-03-21T19:07:52.917Z,11.03
2019-03-21T19:09:28.095Z,11.01
2019-03-21T19:11:03.359Z,10.99
2019-03-21T19:12:38.594Z,10.97
2019-03-21T19:14:14.000Z,10.93
2019-03-21T19:15:49.214Z,10.89
2019-03-21T19:17:24.674Z,10.93
2019-03-21T19:18:59.864Z,10.97
2019-03-21T19:20:35.127Z,10.95
2019-03-21T19:22:10.306Z,10.84
2019-03-21T19:23:45.505Z,10.90
2019-03-21T19:25:20.760Z,10.79
2019-03-21T19:26:56.000Z,10.74
2019-03-21T19:28:31.223Z,10.61
2019-03-21T19:30:07.819Z,10.66
2019-03-21T19:31:44.074Z,10.56
2019-03-21T19:33:19.250Z,10.60
2019-03-21T19:34:54.456Z,10.52
2019-03-21T19:36:29.645Z,10.47
2019-03-21T19:38:04.911Z,10.40
2019-03-21T19:39:42.017Z,10.47
2019-03-21T19:41:17.235Z,10.47
2019-03-21T19:42:52.437Z,10.45
2019-03-21T19:44:27.632Z,10.42
2019-03-21T19:46:02.820Z,10.33
2019-03-21T19:47:38.165Z,10.26
2019-03-21T19:49:13.358Z,10.25
2019-03-21T19:50:48.557Z,10.21
2019-03-21T19:52:24.732Z,10.21
2019-03-21T19:53:59.915Z,10.13
2019-03-21T19:55:35.316Z,10.09
2019-03-21T19:57:10.726Z,10.17
2019-03-21T19:58:45.882Z,10.24
2019-03-21T20:00:21.332Z,10.09
2019-03-21T20:01:56.630Z,10.08
2019-03-21T20:03:31.873Z,10.01
2019-03-21T20:05:07.735Z,9.95
2019-03-21T20:06:42.916Z,9.94
2019-03-21T20:08:18.111Z,9.85
2019-03-21T20:09:53.304Z,9.87
2019-03-21T20:11:28.471Z,9.84
2019-03-21T20:13:03.681Z,9.82
2019-03-21T20:14:39.076Z,9.80
2019-03-21T20:16:14.396Z,9.75
2019-03-21T20:17:49.818Z,9.70
2019-03-21T20:19:26.087Z,9.66
2019-03-21T20:21:01.346Z,9.65
2019-03-21T20:22:36.689Z,9.61
2019-03-21T20:24:11.867Z,9.58
2019-03-21T20:25:47.124Z,9.60
2019-03-21T20:27:22.406Z,9.63
2019-03-21T20:28:57.680Z,9.64
2019-03-21T20:30:32.868Z,9.60
2019-03-21T20:32:19.909Z,9.51
2019-03-21T20:33:44.946Z,9.46
2019-03-21T20:35:20.127Z,9.39
2019-03-21T20:36:55.455Z,9.36
2019-03-21T20:38:30.712Z,9.41
2019-03-21T20:40:06.602Z,9.41